Happy Dragon — PBXI — position and weather

sailwx.info

Track history (hours):
 
Tides and Currents Weather Stations Pressure Air Temp Water Temp Dewpoint Dewpoint Depression Visibility Wind Speed Wind Dir Waves Ship Positions

Happy Dragon

Last reported at 2017-Oct-17 22:37 UTC. Time now 2017-Oct-20 05:12 UTC.
Position N 47°51' W 006°52'.

Length 157 m; draft 7.5 m.

Type: Cargo ship. MMSI: 246661000.

Date/timePositionNaut miles runAvg speedWind from/ knotsBaromVisibWave heightAir tempDewpointWater temp
2017-Oct-17 22:37N 47°51' W 006°52'214.9
2017-Oct-17 22:30N 47°52' W 006°50'7316.4
2017-Oct-17 18:03N 48°52' W 005°48'8113.2
2017-Oct-17 11:57N 49°34' W 004°03'714.2
2017-Oct-17 11:28N 49°38' W 003°54'815.0
2017-Oct-17 10:58N 49°42' W 003°44'1415.2
2017-Oct-17 10:04N 49°48' W 003°26'115.1
2017-Oct-17 10:00N 49°49' W 003°24'714.6
2017-Oct-17 09:30N 49°53' W 003°15'714.2
2017-Oct-17 09:00N 49°56' W 003°05'713.5
2017-Oct-17 08:30N 49°59' W 002°56'612.7
2017-Oct-17 08:00N 50°01' W 002°47'610.8
2017-Oct-17 07:27N 50°03' W 002°38'4 8.8
2017-Oct-17 06:57N 50°04' W 002°31'4 7.9
2017-Oct-17 06:29N 50°05' W 002°25'57 9.8
2017-Oct-17 00:39N 50°19' W 000°59'414.8
2017-Oct-17 00:21N 50°20' W 000°52'914.7
2017-Oct-16 23:46N 50°22' W 000°39'514.5
2017-Oct-16 23:27N 50°23' W 000°32'614.0
2017-Oct-16 23:00N 50°25' W 000°23'813.4
2017-Oct-16 22:27N 50°28' W 000°12'612.7
2017-Oct-16 22:00N 50°30' W 000°04'612.7
2017-Oct-16 21:30N 50°31' E 000°06'612.4
2017-Oct-16 20:59N 50°33' E 000°16'612.2
2017-Oct-16 20:30N 50°35' E 000°25'611.8
2017-Oct-16 20:00N 50°38' E 000°33'611.8
2017-Oct-16 19:30N 50°41' E 000°40'611.5
2017-Oct-16 19:00N 50°44' E 000°48'611.9
2017-Oct-16 18:30N 50°48' E 000°56'912.6
2017-Oct-16 17:49N 50°53' E 001°07'613.5
2017-Oct-16 17:24N 50°57' E 001°13'614.2
2017-Oct-16 17:00N 51°00' E 001°20'714.6
2017-Oct-16 16:30N 51°05' E 001°29'714.6
2017-Oct-16 16:00N 51°10' E 001°38'714.2
2017-Oct-16 15:30N 51°15' E 001°46'713.6
2017-Oct-16 15:00N 51°21' E 001°51'1312.7
2017-Oct-16 14:01N 51°31' E 002°02'1712.6
2017-Oct-16 12:38N 51°44' E 002°21'212.2
2017-Oct-16 12:30N 51°46' E 002°22'912.5
2017-Oct-16 11:47N 51°52' E 002°32'312.2
2017-Oct-16 11:31N 51°55' E 002°35'612.4
2017-Oct-16 11:00N 51°59' E 002°42'612.7
2017-Oct-16 10:30N 52°04' E 002°49'713.0
2017-Oct-16 10:00N 52°09' E 002°57'713.3
2017-Oct-16 09:30N 52°14' E 003°04'714.0
2017-Oct-16 09:00N 52°17' E 003°13'714.3
2017-Oct-16 08:30N 52°21' E 003°23'814.5
2017-Oct-16 07:58N 52°25' E 003°34'714.6
2017-Oct-16 07:30N 52°29' E 003°44'714.0
2017-Oct-16 07:00N 52°31' E 003°54'714.4
2017-Oct-16 06:30N 52°31' E 004°06'4 7.8
2017-Oct-16 05:59N 52°32' E 004°13'0 0.1
2017-Oct-16 05:26N 52°32' E 004°13'0 0.1
2017-Oct-16 04:59N 52°32' E 004°13'0 0.1
2017-Oct-16 04:29N 52°32' E 004°13'0 0.1
2017-Oct-16 03:56N 52°32' E 004°13'0 0.0
2017-Oct-16 03:29N 52°32' E 004°13'0 0.0
2017-Oct-16 02:59N 52°32' E 004°13'0 0.0
2017-Oct-16 02:29N 52°32' E 004°13'0 0.0
2017-Oct-16 01:59N 52°32' E 004°13'0 0.0
2017-Oct-16 01:29N 52°32' E 004°13'0 0.0
2017-Oct-16 00:59N 52°32' E 004°13'0 0.0
2017-Oct-16 00:29N 52°32' E 004°13'0 0.0
2017-Oct-15 23:59N 52°32' E 004°13'0 0.0
2017-Oct-15 23:29N 52°32' E 004°13'0 0.0
2017-Oct-15 22:59N 52°32' E 004°13'0 0.0
2017-Oct-15 22:29N 52°32' E 004°13'0 0.0
2017-Oct-15 21:59N 52°32' E 004°13'0 0.0
2017-Oct-15 21:29N 52°32' E 004°13'0 0.1
2017-Oct-15 20:59N 52°32' E 004°13'0 0.1
2017-Oct-15 20:29N 52°32' E 004°13'0 0.2
2017-Oct-15 19:59N 52°32' E 004°13'0 0.1
2017-Oct-15 19:29N 52°32' E 004°13'0 0.1
2017-Oct-15 18:59N 52°32' E 004°13'0 0.1
2017-Oct-15 18:29N 52°32' E 004°13'0 0.0
2017-Oct-15 17:59N 52°32' E 004°13'0 0.1
2017-Oct-15 17:29N 52°32' E 004°13'0 0.2
2017-Oct-15 16:59N 52°32' E 004°13'0 0.1
2017-Oct-15 16:29N 52°32' E 004°13'0 0.0
2017-Oct-15 15:59N 52°32' E 004°13'0 0.0
2017-Oct-15 15:29N 52°32' E 004°13'0 0.0
2017-Oct-15 14:59N 52°32' E 004°13'0 0.0
2017-Oct-15 13:59N 52°32' E 004°13'0 0.0
2017-Oct-15 13:29N 52°32' E 004°13'0 0.0
2017-Oct-15 12:59N 52°32' E 004°13'0 0.0
2017-Oct-15 12:29N 52°32' E 004°13'0 0.0
2017-Oct-15 11:59N 52°32' E 004°13'0 0.0
2017-Oct-15 11:29N 52°32' E 004°13'0 0.0
2017-Oct-15 10:59N 52°32' E 004°13'0 0.0
2017-Oct-15 10:29N 52°32' E 004°13'0 0.0
2017-Oct-15 09:59N 52°32' E 004°13'0 0.0
2017-Oct-15 09:29N 52°32' E 004°13'0 0.0
2017-Oct-15 08:59N 52°32' E 004°13'0 0.1
2017-Oct-15 08:29N 52°32' E 004°13'0 0.0
2017-Oct-15 07:59N 52°32' E 004°13'0 0.1
2017-Oct-15 07:29N 52°32' E 004°13'0 0.1
2017-Oct-15 06:59N 52°32' E 004°13'0 0.1
2017-Oct-15 06:29N 52°32' E 004°13'0 0.0
2017-Oct-15 05:59N 52°32' E 004°13'0 0.0
2017-Oct-15 05:29N 52°32' E 004°13'0 0.0
2017-Oct-15 04:59N 52°32' E 004°13'0 0.1
2017-Oct-15 04:29N 52°32' E 004°13'0 0.1
2017-Oct-15 03:59N 52°32' E 004°13'0 0.2
2017-Oct-15 03:29N 52°32' E 004°13'0 0.1
2017-Oct-15 02:59N 52°32' E 004°13'0 0.1
2017-Oct-15 02:29N 52°32' E 004°13'0 0.0
2017-Oct-15 01:59N 52°32' E 004°13'0 0.0
2017-Oct-15 01:29N 52°32' E 004°13'0 0.0
2017-Oct-15 00:59N 52°32' E 004°13'0 0.0
2017-Oct-15 00:29N 52°32' E 004°13'0 0.0
2017-Oct-14 23:59N 52°32' E 004°13'0 0.0
2017-Oct-14 23:29N 52°32' E 004°13'0 0.0
2017-Oct-14 22:59N 52°32' E 004°13'0 0.0
2017-Oct-14 22:29N 52°32' E 004°13'0 0.0
2017-Oct-14 21:59N 52°32' E 004°13'0 0.0
2017-Oct-14 21:28N 52°32' E 004°13'0 0.0
2017-Oct-14 20:59N 52°32' E 004°13'1 2.7
2017-Oct-14 20:30N 52°32' E 004°15'612.0
2017-Oct-14 20:00N 52°29' E 004°24'612.4
2017-Oct-14 19:30N 52°28' E 004°34'0 0.4
2017-Oct-14 18:58N 52°28' E 004°34'0 0.0
2017-Oct-14 18:28N 52°28' E 004°34'0 0.0
2017-Oct-14 17:58N 52°28' E 004°34'0 0.0
2017-Oct-14 17:28N 52°28' E 004°34'0 0.0
2017-Oct-14 16:58N 52°28' E 004°34'0 0.0
2017-Oct-14 16:28N 52°28' E 004°34'0 0.0
2017-Oct-14 15:58N 52°28' E 004°34'0 0.0
2017-Oct-14 15:28N 52°28' E 004°34'0 0.0
2017-Oct-14 14:58N 52°28' E 004°34'0 0.0
2017-Oct-14 14:25N 52°28' E 004°34'0 0.0
2017-Oct-14 13:58N 52°28' E 004°34'0 0.0
2017-Oct-14 13:28N 52°28' E 004°34'0 0.0
2017-Oct-14 12:58N 52°28' E 004°34'0 0.0
2017-Oct-14 12:28N 52°28' E 004°34'0 0.0
2017-Oct-14 11:58N 52°28' E 004°34'0 0.0
2017-Oct-14 11:28N 52°28' E 004°34'0 0.0
2017-Oct-14 10:58N 52°28' E 004°34'0 0.0
2017-Oct-14 10:28N 52°28' E 004°34'0 0.0
2017-Oct-14 09:58N 52°28' E 004°34'0 0.0
2017-Oct-14 09:28N 52°28' E 004°34'0 0.0
2017-Oct-14 08:58N 52°28' E 004°34'0 0.0
2017-Oct-14 08:28N 52°28' E 004°34'0 0.0
2017-Oct-14 07:58N 52°28' E 004°34'0 0.0
2017-Oct-14 07:28N 52°28' E 004°34'0 0.0
2017-Oct-14 06:58N 52°28' E 004°34'0 0.0
2017-Oct-14 06:28N 52°28' E 004°34'0 0.0
2017-Oct-14 05:58N 52°28' E 004°34'0 0.0
2017-Oct-14 05:28N 52°28' E 004°34'0 0.2
2017-Oct-14 05:00N 52°28' E 004°34'1 2.7
2017-Oct-14 04:31N 52°28' E 004°32'510.0
2017-Oct-14 04:00N 52°29' E 004°24'4 8.8
2017-Oct-14 03:30N 52°29' E 004°17'510.8
2017-Oct-14 03:00N 52°29' E 004°08'4 7.7
2017-Oct-14 02:30N 52°26' E 004°03'0 0.2
2017-Oct-14 02:00N 52°26' E 004°03'0 0.0
2017-Oct-14 01:30N 52°26' E 004°03'0 0.0
2017-Oct-14 01:00N 52°26' E 004°03'0 0.0
2017-Oct-14 00:30N 52°26' E 004°03'0 0.0
2017-Oct-14 00:00N 52°26' E 004°02'0 0.1
2017-Oct-13 23:27N 52°27' E 004°02'0 0.0
2017-Oct-13 23:00N 52°27' E 004°02'0 0.0
2017-Oct-13 22:30N 52°27' E 004°02'0 0.0
2017-Oct-13 22:00N 52°27' E 004°02'0 0.0
2017-Oct-13 21:30N 52°27' E 004°02'0 0.0
2017-Oct-13 21:00N 52°27' E 004°02'0 0.0
2017-Oct-13 20:30N 52°27' E 004°02'0 0.0
2017-Oct-13 20:00N 52°27' E 004°02'0 0.0
2017-Oct-13 19:30N 52°27' E 004°02'0 0.0
2017-Oct-13 19:00N 52°27' E 004°02'0 0.0
2017-Oct-13 18:30N 52°27' E 004°02'0 0.0
2017-Oct-13 18:00N 52°26' E 004°02'0 0.2
2017-Oct-13 17:30N 52°26' E 004°02'1 2.9
2017-Oct-13 17:00N 52°27' E 004°01'713.9
2017-Oct-13 16:29N 52°26' E 003°49'713.9
2017-Oct-13 15:58N 52°27' E 003°37'6414.4
2017-Oct-13 11:32N 53°09' E 002°18'013.9
2017-Oct-13 11:30N 53°09' E 002°17'713.9
2017-Oct-13 11:00N 53°14' E 002°09'8912.2
2017-Oct-13 03:41N 54°14' E 000°18'211.3
2017-Oct-13 03:30N 54°16' E 000°15'611.3
2017-Oct-13 03:00N 54°19' E 000°08'4 7.8
2017-Oct-13 02:30N 54°22' E 000°02'611.9
2017-Oct-13 02:00N 54°26' W 000°06'612.4
2017-Oct-13 01:30N 54°30' W 000°14'3 6.2
2017-Oct-13 01:00N 54°32' W 000°18'1 2.7
2017-Oct-13 00:30N 54°32' W 000°20'4 8.5
2017-Oct-13 00:00N 54°35' W 000°25'2611.7
2017-Oct-12 21:47N 54°52' W 000°60'311.2
2017-Oct-12 21:29N 54°54' W 001°04'510.4
2017-Oct-12 21:00N 54°57' W 001°11'3 5.8
2017-Oct-12 20:30N 54°59' W 001°15'4 7.6
2017-Oct-12 20:01N 55°01' W 001°20'4 7.6
2017-Oct-12 19:30N 55°00' W 001°26'2 3.4
2017-Oct-12 19:00N 54°59' W 001°28'2 3.3
2017-Oct-12 18:31N 54°59' W 001°31'1 1.0
2017-Oct-12 18:00N 54°59' W 001°32'0 0.0
2017-Oct-12 17:30N 54°59' W 001°32'0 0.0
2017-Oct-12 17:00N 54°59' W 001°32'0 0.0
2017-Oct-12 16:30N 54°59' W 001°32'0 0.0
2017-Oct-12 16:00N 54°59' W 001°32'0 0.0
2017-Oct-12 15:30N 54°59' W 001°32'0 0.0
2017-Oct-12 15:00N 54°59' W 001°32'0 0.0
2017-Oct-12 14:30N 54°59' W 001°32'0 0.0
2017-Oct-12 13:48N 54°59' W 001°32'0 0.0
2017-Oct-12 13:30N 54°59' W 001°32'0 0.0
2017-Oct-12 13:00N 54°59' W 001°32'0 0.0
2017-Oct-12 12:18N 54°59' W 001°32'0 0.0
2017-Oct-12 11:51N 54°59' W 001°32'0 0.0
2017-Oct-12 11:21N 54°59' W 001°32'0 0.0
2017-Oct-12 10:51N 54°59' W 001°32'0 0.0
2017-Oct-12 10:21N 54°59' W 001°32'0 0.0
2017-Oct-12 09:54N 54°59' W 001°32'0 0.0
2017-Oct-12 09:24N 54°59' W 001°32'0 0.0
2017-Oct-12 08:54N 54°59' W 001°32'0 0.0
2017-Oct-12 08:24N 54°59' W 001°32'0 0.0
2017-Oct-12 07:54N 54°59' W 001°32'0 0.0
2017-Oct-12 07:24N 54°59' W 001°32'0 0.0
2017-Oct-12 06:57N 54°59' W 001°32'0 0.0
2017-Oct-12 06:27N 54°59' W 001°32'0 0.0
2017-Oct-12 05:57N 54°59' W 001°32'0 0.0
2017-Oct-12 05:27N 54°59' W 001°32'0 0.0
2017-Oct-12 04:57N 54°59' W 001°32'0 0.0
2017-Oct-12 04:27N 54°59' W 001°32'0 0.0
2017-Oct-12 03:57N 54°59' W 001°32'0 0.0
2017-Oct-12 03:30N 54°59' W 001°32'0 0.0
2017-Oct-12 03:00N 54°59' W 001°32'0 0.0
2017-Oct-12 02:30N 54°59' W 001°32'0 0.0
2017-Oct-12 02:00N 54°59' W 001°32'0 0.0
2017-Oct-12 01:30N 54°59' W 001°32'0 0.0
2017-Oct-12 00:57N 54°59' W 001°32'0 0.0
2017-Oct-12 00:30N 54°59' W 001°32'0 0.0
2017-Oct-11 23:57N 54°59' W 001°32'0 0.0
2017-Oct-11 23:30N 54°59' W 001°32'0 0.0
2017-Oct-11 23:00N 54°59' W 001°32'0 0.0
2017-Oct-11 22:30N 54°59' W 001°32'0 0.0
2017-Oct-11 22:00N 54°59' W 001°32'0 0.0
2017-Oct-11 21:21N 54°59' W 001°32'0 0.0
2017-Oct-11 21:00N 54°59' W 001°32'0 0.0
2017-Oct-11 20:21N 54°59' W 001°32'0 0.0
2017-Oct-11 19:51N 54°59' W 001°32'0 0.0
2017-Oct-11 19:21N 54°59' W 001°32'0 0.0
2017-Oct-11 18:51N 54°59' W 001°32'0 0.0
2017-Oct-11 18:24N 54°59' W 001°32'0 0.0
2017-Oct-11 17:54N 54°59' W 001°32'0 0.0
2017-Oct-11 17:24N 54°59' W 001°32'0 0.0
2017-Oct-11 16:51N 54°59' W 001°32'0 0.0
2017-Oct-10 23:57N 54°59' W 001°32'0 0.0
2017-Oct-10 23:30N 54°59' W 001°32'0 0.0
2017-Oct-10 23:00N 54°59' W 001°32'0 0.0
2017-Oct-10 22:27N 54°59' W 001°32'0 0.0
2017-Oct-10 21:57N 54°59' W 001°32'0 0.0
2017-Oct-10 21:30N 54°59' W 001°32'0 0.0
2017-Oct-10 21:00N 54°59' W 001°32'0 0.0
2017-Oct-10 20:30N 54°59' W 001°32'0 0.0
2017-Oct-10 20:00N 54°59' W 001°32'0 0.0
2017-Oct-10 19:30N 54°59' W 001°32'0 0.0
2017-Oct-10 18:48N 54°59' W 001°32'0 0.0
2017-Oct-10 18:30N 54°59' W 001°32'0 0.0
2017-Oct-10 18:00N 54°59' W 001°32'0 0.0
2017-Oct-10 17:30N 54°59' W 001°32'0 0.0
2017-Oct-10 17:00N 54°59' W 001°32'0 0.0
2017-Oct-10 16:30N 54°59' W 001°32'0 0.0
2017-Oct-10 16:00N 54°59' W 001°32'0 0.0
2017-Oct-10 15:30N 54°59' W 001°32'0 0.0
2017-Oct-10 14:51N 54°59' W 001°32'0 0.0
2017-Oct-10 13:54N 54°59' W 001°32'0 0.0
2017-Oct-10 13:21N 54°59' W 001°32'0 0.0
2017-Oct-10 12:54N 54°59' W 001°32'0 0.0
2017-Oct-10 12:24N 54°59' W 001°32'0 0.0
2017-Oct-10 11:54N 54°59' W 001°32'0 0.0
2017-Oct-10 11:24N 54°59' W 001°32'0 0.0
2017-Oct-10 10:57N 54°59' W 001°32'0 0.0
2017-Oct-10 10:27N 54°59' W 001°32'0 0.0
2017-Oct-10 09:57N 54°59' W 001°32'0 0.0
2017-Oct-10 09:27N 54°59' W 001°32'0 0.0
2017-Oct-10 08:57N 54°59' W 001°32'0 0.0
2017-Oct-10 08:27N 54°59' W 001°32'0 0.0
2017-Oct-10 07:57N 54°59' W 001°32'0 0.0
2017-Oct-10 07:30N 54°59' W 001°32'0 0.0
2017-Oct-10 07:00N 54°59' W 001°32'0 0.0
2017-Oct-10 06:27N 54°59' W 001°32'0 0.0
2017-Oct-10 06:00N 54°59' W 001°32'0 0.0
2017-Oct-10 05:30N 54°59' W 001°32'0 0.0
2017-Oct-10 05:00N 54°59' W 001°32'0 0.0
2017-Oct-10 04:30N 54°59' W 001°32'0 0.0
2017-Oct-10 04:00N 54°59' W 001°32'0 0.0
2017-Oct-10 03:30N 54°59' W 001°32'0 0.0
2017-Oct-10 03:00N 54°59' W 001°32'0 0.0
2017-Oct-10 02:30N 54°59' W 001°32'0 0.0
2017-Oct-10 02:00N 54°59' W 001°32'0 0.0
2017-Oct-10 01:30N 54°59' W 001°32'0 0.0
2017-Oct-10 01:00N 54°59' W 001°32'0 0.0
2017-Oct-10 00:30N 54°59' W 001°32'0 0.0
2017-Oct-10 00:00N 54°59' W 001°32'0 0.0
2017-Oct-09 23:18N 54°59' W 001°32'0 0.0
2017-Oct-09 22:54N 54°59' W 001°32'0 0.0
2017-Oct-09 22:24N 54°59' W 001°32'0 0.0
2017-Oct-09 21:54N 54°59' W 001°32'0 0.0
2017-Oct-09 21:24N 54°59' W 001°32'0 0.0
2017-Oct-09 20:54N 54°59' W 001°32'0 0.0
2017-Oct-09 20:24N 54°59' W 001°32'0 0.0
2017-Oct-09 19:57N 54°59' W 001°32'0 0.0
2017-Oct-09 19:27N 54°59' W 001°32'0 0.0
2017-Oct-09 18:57N 54°59' W 001°32'0 0.0
2017-Oct-09 18:27N 54°59' W 001°32'0 0.0
2017-Oct-09 17:57N 54°59' W 001°32'0 0.0
2017-Oct-09 17:27N 54°59' W 001°32'0 0.0
2017-Oct-09 16:54N 54°59' W 001°32'0 0.0
2017-Oct-09 16:30N 54°59' W 001°32'0 0.0
2017-Oct-09 16:00N 54°59' W 001°32'0 0.0
2017-Oct-09 15:30N 54°59' W 001°32'0 0.0
2017-Oct-09 15:00N 54°59' W 001°32'0 0.0
2017-Oct-09 14:30N 54°59' W 001°32'0 0.0
2017-Oct-09 14:00N 54°59' W 001°32'0 0.0
2017-Oct-09 13:30N 54°59' W 001°32'0 0.0
2017-Oct-09 13:00N 54°59' W 001°32'0 0.0
2017-Oct-09 12:30N 54°59' W 001°32'0 0.0
2017-Oct-09 12:00N 54°59' W 001°32'0 0.0
2017-Oct-09 11:30N 54°59' W 001°32'0 0.0
2017-Oct-09 11:00N 54°59' W 001°32'0 0.0
2017-Oct-09 10:30N 54°59' W 001°32'0 0.0
2017-Oct-09 10:00N 54°59' W 001°32'0 0.0
2017-Oct-09 09:30N 54°59' W 001°32'0 0.0
2017-Oct-09 08:51N 54°59' W 001°32'0 0.0
2017-Oct-09 08:21N 54°59' W 001°32'0 0.0
2017-Oct-09 07:54N 54°59' W 001°32'0 0.0
2017-Oct-09 07:24N 54°59' W 001°32'0 0.0
2017-Oct-09 06:54N 54°59' W 001°32'0 0.0
2017-Oct-09 06:24N 54°59' W 001°32'0 0.0
2017-Oct-09 05:54N 54°59' W 001°32'0 0.0
2017-Oct-09 05:27N 54°59' W 001°32'0 0.0
2017-Oct-09 04:57N 54°59' W 001°32'0 0.0
2017-Oct-09 04:27N 54°59' W 001°32'0 0.0
2017-Oct-09 03:54N 54°59' W 001°32'0 0.0
2017-Oct-09 03:27N 54°59' W 001°32'0 0.0
2017-Oct-09 02:57N 54°59' W 001°32'0 0.0
2017-Oct-09 02:27N 54°59' W 001°32'0 0.0
2017-Oct-09 01:57N 54°59' W 001°32'0 0.0
2017-Oct-09 01:30N 54°59' W 001°32'0 0.0
2017-Oct-09 01:00N 54°59' W 001°32'0 0.0
2017-Oct-09 00:30N 54°59' W 001°32'0 0.0
2017-Oct-09 00:00N 54°59' W 001°32'0 0.0
2017-Oct-08 23:30N 54°59' W 001°32'0 0.0
2017-Oct-08 23:00N 54°59' W 001°32'0 0.0
2017-Oct-08 22:30N 54°59' W 001°32'0 0.0
2017-Oct-08 22:00N 54°59' W 001°32'0 0.0
2017-Oct-08 21:30N 54°59' W 001°32'0 0.0
2017-Oct-08 21:00N 54°59' W 001°32'0 0.0
2017-Oct-08 20:30N 54°59' W 001°32'0 0.0
2017-Oct-08 20:00N 54°59' W 001°32'0 0.0
2017-Oct-08 19:30N 54°59' W 001°32'0 0.0
2017-Oct-08 19:00N 54°59' W 001°32'0 0.0
2017-Oct-08 18:30N 54°59' W 001°32'0 0.0
2017-Oct-08 17:48N 54°59' W 001°32'0 0.0
2017-Oct-08 17:24N 54°59' W 001°32'0 0.0
2017-Oct-08 16:54N 54°59' W 001°32'0 0.0
2017-Oct-08 16:27N 54°59' W 001°32'1 2.0
2017-Oct-08 16:00N 54°59' W 001°31'3 5.7
2017-Oct-08 15:30N 55°00' W 001°26'2 3.9
2017-Oct-08 15:00N 55°01' W 001°23'0 0.2
2017-Oct-08 14:29N 55°02' W 001°23'0 0.1
2017-Oct-08 13:59N 55°02' W 001°23'0 0.0
2017-Oct-08 13:29N 55°02' W 001°23'0 0.1
2017-Oct-08 12:59N 55°02' W 001°23'0 0.2
2017-Oct-08 12:26N 55°02' W 001°23'0 0.0
2017-Oct-08 11:59N 55°02' W 001°23'0 0.0
2017-Oct-08 11:29N 55°02' W 001°23'0 0.0
2017-Oct-08 10:59N 55°02' W 001°23'0 0.1
2017-Oct-08 10:30N 55°02' W 001°23'1 1.4
2017-Oct-08 10:00N 55°01' W 001°22'612.0
2017-Oct-08 09:30N 54°58' W 001°14'714.5
2017-Oct-08 09:00N 54°52' W 001°05'714.4
2017-Oct-08 08:30N 54°47' W 000°56'2113.8
2017-Oct-08 06:57N 54°31' W 000°31'612.9
2017-Oct-08 06:30N 54°27' W 000°25'612.6
2017-Oct-08 06:00N 54°23' W 000°17'612.4
2017-Oct-08 05:30N 54°18' W 000°10'612.0
2017-Oct-08 05:00N 54°14' W 000°03'611.5
2017-Oct-08 04:30N 54°09' E 000°03'611.8
2017-Oct-08 04:00N 54°05' E 000°10'612.3
2017-Oct-08 03:30N 54°01' E 000°17'612.8
2017-Oct-08 03:00N 53°56' E 000°26'4913.1
2017-Oct-07 23:14N 53°27' E 001°32'  
Track history (hours):
 
Tides and Currents Weather Stations Pressure Air Temp Water Temp Dewpoint Dewpoint Depression Visibility Wind Speed Wind Dir Waves Ship Positions

Happy Dragon

Last reported at 2017-Oct-17 22:37 UTC. Time now 2017-Oct-20 05:12 UTC.
Position N 47°51' W 006°52'.

Length 157 m; draft 7.5 m.

Type: Cargo ship. MMSI: 246661000.

Date/timePositionNaut miles runAvg speedWind from/ knotsBaromVisibWave heightAir tempDewpointWater temp
2017-Oct-17 22:37N 47°51' W 006°52'214.9
2017-Oct-17 22:30N 47°52' W 006°50'7316.4
2017-Oct-17 18:03N 48°52' W 005°48'8113.2
2017-Oct-17 11:57N 49°34' W 004°03'714.2
2017-Oct-17 11:28N 49°38' W 003°54'815.0
2017-Oct-17 10:58N 49°42' W 003°44'1415.2
2017-Oct-17 10:04N 49°48' W 003°26'115.1
2017-Oct-17 10:00N 49°49' W 003°24'714.6
2017-Oct-17 09:30N 49°53' W 003°15'714.2
2017-Oct-17 09:00N 49°56' W 003°05'713.5
2017-Oct-17 08:30N 49°59' W 002°56'612.7
2017-Oct-17 08:00N 50°01' W 002°47'610.8
2017-Oct-17 07:27N 50°03' W 002°38'4 8.8
2017-Oct-17 06:57N 50°04' W 002°31'4 7.9
2017-Oct-17 06:29N 50°05' W 002°25'57 9.8
2017-Oct-17 00:39N 50°19' W 000°59'414.8
2017-Oct-17 00:21N 50°20' W 000°52'914.7
2017-Oct-16 23:46N 50°22' W 000°39'514.5
2017-Oct-16 23:27N 50°23' W 000°32'614.0
2017-Oct-16 23:00N 50°25' W 000°23'813.4
2017-Oct-16 22:27N 50°28' W 000°12'612.7
2017-Oct-16 22:00N 50°30' W 000°04'612.7
2017-Oct-16 21:30N 50°31' E 000°06'612.4
2017-Oct-16 20:59N 50°33' E 000°16'612.2
2017-Oct-16 20:30N 50°35' E 000°25'611.8
2017-Oct-16 20:00N 50°38' E 000°33'611.8
2017-Oct-16 19:30N 50°41' E 000°40'611.5
2017-Oct-16 19:00N 50°44' E 000°48'611.9
2017-Oct-16 18:30N 50°48' E 000°56'912.6
2017-Oct-16 17:49N 50°53' E 001°07'613.5
2017-Oct-16 17:24N 50°57' E 001°13'614.2
2017-Oct-16 17:00N 51°00' E 001°20'714.6
2017-Oct-16 16:30N 51°05' E 001°29'714.6
2017-Oct-16 16:00N 51°10' E 001°38'714.2
2017-Oct-16 15:30N 51°15' E 001°46'713.6
2017-Oct-16 15:00N 51°21' E 001°51'1312.7
2017-Oct-16 14:01N 51°31' E 002°02'1712.6
2017-Oct-16 12:38N 51°44' E 002°21'212.2
2017-Oct-16 12:30N 51°46' E 002°22'912.5
2017-Oct-16 11:47N 51°52' E 002°32'312.2
2017-Oct-16 11:31N 51°55' E 002°35'612.4
2017-Oct-16 11:00N 51°59' E 002°42'612.7
2017-Oct-16 10:30N 52°04' E 002°49'713.0
2017-Oct-16 10:00N 52°09' E 002°57'713.3
2017-Oct-16 09:30N 52°14' E 003°04'714.0
2017-Oct-16 09:00N 52°17' E 003°13'714.3
2017-Oct-16 08:30N 52°21' E 003°23'814.5
2017-Oct-16 07:58N 52°25' E 003°34'714.6
2017-Oct-16 07:30N 52°29' E 003°44'714.0
2017-Oct-16 07:00N 52°31' E 003°54'714.4
2017-Oct-16 06:30N 52°31' E 004°06'4 7.8
2017-Oct-16 05:59N 52°32' E 004°13'0 0.1
2017-Oct-16 05:26N 52°32' E 004°13'0 0.1
2017-Oct-16 04:59N 52°32' E 004°13'0 0.1
2017-Oct-16 04:29N 52°32' E 004°13'0 0.1
2017-Oct-16 03:56N 52°32' E 004°13'0 0.0
2017-Oct-16 03:29N 52°32' E 004°13'0 0.0
2017-Oct-16 02:59N 52°32' E 004°13'0 0.0
2017-Oct-16 02:29N 52°32' E 004°13'0 0.0
2017-Oct-16 01:59N 52°32' E 004°13'0 0.0
2017-Oct-16 01:29N 52°32' E 004°13'0 0.0
2017-Oct-16 00:59N 52°32' E 004°13'0 0.0
2017-Oct-16 00:29N 52°32' E 004°13'0 0.0
2017-Oct-15 23:59N 52°32' E 004°13'0 0.0
2017-Oct-15 23:29N 52°32' E 004°13'0 0.0
2017-Oct-15 22:59N 52°32' E 004°13'0 0.0
2017-Oct-15 22:29N 52°32' E 004°13'0 0.0
2017-Oct-15 21:59N 52°32' E 004°13'0 0.0
2017-Oct-15 21:29N 52°32' E 004°13'0 0.1
2017-Oct-15 20:59N 52°32' E 004°13'0 0.1
2017-Oct-15 20:29N 52°32' E 004°13'0 0.2
2017-Oct-15 19:59N 52°32' E 004°13'0 0.1
2017-Oct-15 19:29N 52°32' E 004°13'0 0.1
2017-Oct-15 18:59N 52°32' E 004°13'0 0.1
2017-Oct-15 18:29N 52°32' E 004°13'0 0.0
2017-Oct-15 17:59N 52°32' E 004°13'0 0.1
2017-Oct-15 17:29N 52°32' E 004°13'0 0.2
2017-Oct-15 16:59N 52°32' E 004°13'0 0.1
2017-Oct-15 16:29N 52°32' E 004°13'0 0.0
2017-Oct-15 15:59N 52°32' E 004°13'0 0.0
2017-Oct-15 15:29N 52°32' E 004°13'0 0.0
2017-Oct-15 14:59N 52°32' E 004°13'0 0.0
2017-Oct-15 13:59N 52°32' E 004°13'0 0.0
2017-Oct-15 13:29N 52°32' E 004°13'0 0.0
2017-Oct-15 12:59N 52°32' E 004°13'0 0.0
2017-Oct-15 12:29N 52°32' E 004°13'0 0.0
2017-Oct-15 11:59N 52°32' E 004°13'0 0.0
2017-Oct-15 11:29N 52°32' E 004°13'0 0.0
2017-Oct-15 10:59N 52°32' E 004°13'0 0.0
2017-Oct-15 10:29N 52°32' E 004°13'0 0.0
2017-Oct-15 09:59N 52°32' E 004°13'0 0.0
2017-Oct-15 09:29N 52°32' E 004°13'0 0.0
2017-Oct-15 08:59N 52°32' E 004°13'0 0.1
2017-Oct-15 08:29N 52°32' E 004°13'0 0.0
2017-Oct-15 07:59N 52°32' E 004°13'0 0.1
2017-Oct-15 07:29N 52°32' E 004°13'0 0.1
2017-Oct-15 06:59N 52°32' E 004°13'0 0.1
2017-Oct-15 06:29N 52°32' E 004°13'0 0.0
2017-Oct-15 05:59N 52°32' E 004°13'0 0.0
2017-Oct-15 05:29N 52°32' E 004°13'0 0.0
2017-Oct-15 04:59N 52°32' E 004°13'0 0.1
2017-Oct-15 04:29N 52°32' E 004°13'0 0.1
2017-Oct-15 03:59N 52°32' E 004°13'0 0.2
2017-Oct-15 03:29N 52°32' E 004°13'0 0.1
2017-Oct-15 02:59N 52°32' E 004°13'0 0.1
2017-Oct-15 02:29N 52°32' E 004°13'0 0.0
2017-Oct-15 01:59N 52°32' E 004°13'0 0.0
2017-Oct-15 01:29N 52°32' E 004°13'0 0.0
2017-Oct-15 00:59N 52°32' E 004°13'0 0.0
2017-Oct-15 00:29N 52°32' E 004°13'0 0.0
2017-Oct-14 23:59N 52°32' E 004°13'0 0.0
2017-Oct-14 23:29N 52°32' E 004°13'0 0.0
2017-Oct-14 22:59N 52°32' E 004°13'0 0.0
2017-Oct-14 22:29N 52°32' E 004°13'0 0.0
2017-Oct-14 21:59N 52°32' E 004°13'0 0.0
2017-Oct-14 21:28N 52°32' E 004°13'0 0.0
2017-Oct-14 20:59N 52°32' E 004°13'1 2.7
2017-Oct-14 20:30N 52°32' E 004°15'612.0
2017-Oct-14 20:00N 52°29' E 004°24'612.4
2017-Oct-14 19:30N 52°28' E 004°34'0 0.4
2017-Oct-14 18:58N 52°28' E 004°34'0 0.0
2017-Oct-14 18:28N 52°28' E 004°34'0 0.0
2017-Oct-14 17:58N 52°28' E 004°34'0 0.0
2017-Oct-14 17:28N 52°28' E 004°34'0 0.0
2017-Oct-14 16:58N 52°28' E 004°34'0 0.0
2017-Oct-14 16:28N 52°28' E 004°34'0 0.0
2017-Oct-14 15:58N 52°28' E 004°34'0 0.0
2017-Oct-14 15:28N 52°28' E 004°34'0 0.0
2017-Oct-14 14:58N 52°28' E 004°34'0 0.0
2017-Oct-14 14:25N 52°28' E 004°34'0 0.0
2017-Oct-14 13:58N 52°28' E 004°34'0 0.0
2017-Oct-14 13:28N 52°28' E 004°34'0 0.0
2017-Oct-14 12:58N 52°28' E 004°34'0 0.0
2017-Oct-14 12:28N 52°28' E 004°34'0 0.0
2017-Oct-14 11:58N 52°28' E 004°34'0 0.0
2017-Oct-14 11:28N 52°28' E 004°34'0 0.0
2017-Oct-14 10:58N 52°28' E 004°34'0 0.0
2017-Oct-14 10:28N 52°28' E 004°34'0 0.0
2017-Oct-14 09:58N 52°28' E 004°34'0 0.0
2017-Oct-14 09:28N 52°28' E 004°34'0 0.0
2017-Oct-14 08:58N 52°28' E 004°34'0 0.0
2017-Oct-14 08:28N 52°28' E 004°34'0 0.0
2017-Oct-14 07:58N 52°28' E 004°34'0 0.0
2017-Oct-14 07:28N 52°28' E 004°34'0 0.0
2017-Oct-14 06:58N 52°28' E 004°34'0 0.0
2017-Oct-14 06:28N 52°28' E 004°34'0 0.0
2017-Oct-14 05:58N 52°28' E 004°34'0 0.0
2017-Oct-14 05:28N 52°28' E 004°34'0 0.2
2017-Oct-14 05:00N 52°28' E 004°34'1 2.7
2017-Oct-14 04:31N 52°28' E 004°32'510.0
2017-Oct-14 04:00N 52°29' E 004°24'4 8.8
2017-Oct-14 03:30N 52°29' E 004°17'510.8
2017-Oct-14 03:00N 52°29' E 004°08'4 7.7
2017-Oct-14 02:30N 52°26' E 004°03'0 0.2
2017-Oct-14 02:00N 52°26' E 004°03'0 0.0
2017-Oct-14 01:30N 52°26' E 004°03'0 0.0
2017-Oct-14 01:00N 52°26' E 004°03'0 0.0
2017-Oct-14 00:30N 52°26' E 004°03'0 0.0
2017-Oct-14 00:00N 52°26' E 004°02'0 0.1
2017-Oct-13 23:27N 52°27' E 004°02'0 0.0
2017-Oct-13 23:00N 52°27' E 004°02'0 0.0
2017-Oct-13 22:30N 52°27' E 004°02'0 0.0
2017-Oct-13 22:00N 52°27' E 004°02'0 0.0
2017-Oct-13 21:30N 52°27' E 004°02'0 0.0
2017-Oct-13 21:00N 52°27' E 004°02'0 0.0
2017-Oct-13 20:30N 52°27' E 004°02'0 0.0
2017-Oct-13 20:00N 52°27' E 004°02'0 0.0
2017-Oct-13 19:30N 52°27' E 004°02'0 0.0
2017-Oct-13 19:00N 52°27' E 004°02'0 0.0
2017-Oct-13 18:30N 52°27' E 004°02'0 0.0
2017-Oct-13 18:00N 52°26' E 004°02'0 0.2
2017-Oct-13 17:30N 52°26' E 004°02'1 2.9
2017-Oct-13 17:00N 52°27' E 004°01'713.9
2017-Oct-13 16:29N 52°26' E 003°49'713.9
2017-Oct-13 15:58N 52°27' E 003°37'6414.4
2017-Oct-13 11:32N 53°09' E 002°18'013.9
2017-Oct-13 11:30N 53°09' E 002°17'713.9
2017-Oct-13 11:00N 53°14' E 002°09'8912.2
2017-Oct-13 03:41N 54°14' E 000°18'211.3
2017-Oct-13 03:30N 54°16' E 000°15'611.3
2017-Oct-13 03:00N 54°19' E 000°08'4 7.8
2017-Oct-13 02:30N 54°22' E 000°02'611.9
2017-Oct-13 02:00N 54°26' W 000°06'612.4
2017-Oct-13 01:30N 54°30' W 000°14'3 6.2
2017-Oct-13 01:00N 54°32' W 000°18'1 2.7
2017-Oct-13 00:30N 54°32' W 000°20'4 8.5
2017-Oct-13 00:00N 54°35' W 000°25'2611.7
2017-Oct-12 21:47N 54°52' W 000°60'311.2
2017-Oct-12 21:29N 54°54' W 001°04'510.4
2017-Oct-12 21:00N 54°57' W 001°11'3 5.8
2017-Oct-12 20:30N 54°59' W 001°15'4 7.6
2017-Oct-12 20:01N 55°01' W 001°20'4 7.6
2017-Oct-12 19:30N 55°00' W 001°26'2 3.4
2017-Oct-12 19:00N 54°59' W 001°28'2 3.3
2017-Oct-12 18:31N 54°59' W 001°31'1 1.0
2017-Oct-12 18:00N 54°59' W 001°32'0 0.0
2017-Oct-12 17:30N 54°59' W 001°32'0 0.0
2017-Oct-12 17:00N 54°59' W 001°32'0 0.0
2017-Oct-12 16:30N 54°59' W 001°32'0 0.0
2017-Oct-12 16:00N 54°59' W 001°32'0 0.0
2017-Oct-12 15:30N 54°59' W 001°32'0 0.0
2017-Oct-12 15:00N 54°59' W 001°32'0 0.0
2017-Oct-12 14:30N 54°59' W 001°32'0 0.0
2017-Oct-12 13:48N 54°59' W 001°32'0 0.0
2017-Oct-12 13:30N 54°59' W 001°32'0 0.0
2017-Oct-12 13:00N 54°59' W 001°32'0 0.0
2017-Oct-12 12:18N 54°59' W 001°32'0 0.0
2017-Oct-12 11:51N 54°59' W 001°32'0 0.0
2017-Oct-12 11:21N 54°59' W 001°32'0 0.0
2017-Oct-12 10:51N 54°59' W 001°32'0 0.0
2017-Oct-12 10:21N 54°59' W 001°32'0 0.0
2017-Oct-12 09:54N 54°59' W 001°32'0 0.0
2017-Oct-12 09:24N 54°59' W 001°32'0 0.0
2017-Oct-12 08:54N 54°59' W 001°32'0 0.0
2017-Oct-12 08:24N 54°59' W 001°32'0 0.0
2017-Oct-12 07:54N 54°59' W 001°32'0 0.0
2017-Oct-12 07:24N 54°59' W 001°32'0 0.0
2017-Oct-12 06:57N 54°59' W 001°32'0 0.0
2017-Oct-12 06:27N 54°59' W 001°32'0 0.0
2017-Oct-12 05:57N 54°59' W 001°32'0 0.0
2017-Oct-12 05:27N 54°59' W 001°32'0 0.0
2017-Oct-12 04:57N 54°59' W 001°32'0 0.0
2017-Oct-12 04:27N 54°59' W 001°32'0 0.0
2017-Oct-12 03:57N 54°59' W 001°32'0 0.0
2017-Oct-12 03:30N 54°59' W 001°32'0 0.0
2017-Oct-12 03:00N 54°59' W 001°32'0 0.0
2017-Oct-12 02:30N 54°59' W 001°32'0 0.0
2017-Oct-12 02:00N 54°59' W 001°32'0 0.0
2017-Oct-12 01:30N 54°59' W 001°32'0 0.0
2017-Oct-12 00:57N 54°59' W 001°32'0 0.0
2017-Oct-12 00:30N 54°59' W 001°32'0 0.0
2017-Oct-11 23:57N 54°59' W 001°32'0 0.0
2017-Oct-11 23:30N 54°59' W 001°32'0 0.0
2017-Oct-11 23:00N 54°59' W 001°32'0 0.0
2017-Oct-11 22:30N 54°59' W 001°32'0 0.0
2017-Oct-11 22:00N 54°59' W 001°32'0 0.0
2017-Oct-11 21:21N 54°59' W 001°32'0 0.0
2017-Oct-11 21:00N 54°59' W 001°32'0 0.0
2017-Oct-11 20:21N 54°59' W 001°32'0 0.0
2017-Oct-11 19:51N 54°59' W 001°32'0 0.0
2017-Oct-11 19:21N 54°59' W 001°32'0 0.0
2017-Oct-11 18:51N 54°59' W 001°32'0 0.0
2017-Oct-11 18:24N 54°59' W 001°32'0 0.0
2017-Oct-11 17:54N 54°59' W 001°32'0 0.0
2017-Oct-11 17:24N 54°59' W 001°32'0 0.0
2017-Oct-11 16:51N 54°59' W 001°32'0 0.0
2017-Oct-10 23:57N 54°59' W 001°32'0 0.0
2017-Oct-10 23:30N 54°59' W 001°32'0 0.0
2017-Oct-10 23:00N 54°59' W 001°32'0 0.0
2017-Oct-10 22:27N 54°59' W 001°32'0 0.0
2017-Oct-10 21:57N 54°59' W 001°32'0 0.0
2017-Oct-10 21:30N 54°59' W 001°32'0 0.0
2017-Oct-10 21:00N 54°59' W 001°32'0 0.0
2017-Oct-10 20:30N 54°59' W 001°32'0 0.0
2017-Oct-10 20:00N 54°59' W 001°32'0 0.0
2017-Oct-10 19:30N 54°59' W 001°32'0 0.0
2017-Oct-10 18:48N 54°59' W 001°32'0 0.0
2017-Oct-10 18:30N 54°59' W 001°32'0 0.0
2017-Oct-10 18:00N 54°59' W 001°32'0 0.0
2017-Oct-10 17:30N 54°59' W 001°32'0 0.0
2017-Oct-10 17:00N 54°59' W 001°32'0 0.0
2017-Oct-10 16:30N 54°59' W 001°32'0 0.0
2017-Oct-10 16:00N 54°59' W 001°32'0 0.0
2017-Oct-10 15:30N 54°59' W 001°32'0 0.0
2017-Oct-10 14:51N 54°59' W 001°32'0 0.0
2017-Oct-10 13:54N 54°59' W 001°32'0 0.0
2017-Oct-10 13:21N 54°59' W 001°32'0 0.0
2017-Oct-10 12:54N 54°59' W 001°32'0 0.0
2017-Oct-10 12:24N 54°59' W 001°32'0 0.0
2017-Oct-10 11:54N 54°59' W 001°32'0 0.0
2017-Oct-10 11:24N 54°59' W 001°32'0 0.0
2017-Oct-10 10:57N 54°59' W 001°32'0 0.0
2017-Oct-10 10:27N 54°59' W 001°32'0 0.0
2017-Oct-10 09:57N 54°59' W 001°32'0 0.0
2017-Oct-10 09:27N 54°59' W 001°32'0 0.0
2017-Oct-10 08:57N 54°59' W 001°32'0 0.0
2017-Oct-10 08:27N 54°59' W 001°32'0 0.0
2017-Oct-10 07:57N 54°59' W 001°32'0 0.0
2017-Oct-10 07:30N 54°59' W 001°32'0 0.0
2017-Oct-10 07:00N 54°59' W 001°32'0 0.0
2017-Oct-10 06:27N 54°59' W 001°32'0 0.0
2017-Oct-10 06:00N 54°59' W 001°32'0 0.0
2017-Oct-10 05:30N 54°59' W 001°32'0 0.0
2017-Oct-10 05:00N 54°59' W 001°32'0 0.0
2017-Oct-10 04:30N 54°59' W 001°32'0 0.0
2017-Oct-10 04:00N 54°59' W 001°32'0 0.0
2017-Oct-10 03:30N 54°59' W 001°32'0 0.0
2017-Oct-10 03:00N 54°59' W 001°32'0 0.0
2017-Oct-10 02:30N 54°59' W 001°32'0 0.0
2017-Oct-10 02:00N 54°59' W 001°32'0 0.0
2017-Oct-10 01:30N 54°59' W 001°32'0 0.0
2017-Oct-10 01:00N 54°59' W 001°32'0 0.0
2017-Oct-10 00:30N 54°59' W 001°32'0 0.0
2017-Oct-10 00:00N 54°59' W 001°32'0 0.0
2017-Oct-09 23:18N 54°59' W 001°32'0 0.0
2017-Oct-09 22:54N 54°59' W 001°32'0 0.0
2017-Oct-09 22:24N 54°59' W 001°32'0 0.0
2017-Oct-09 21:54N 54°59' W 001°32'0 0.0
2017-Oct-09 21:24N 54°59' W 001°32'0 0.0
2017-Oct-09 20:54N 54°59' W 001°32'0 0.0
2017-Oct-09 20:24N 54°59' W 001°32'0 0.0
2017-Oct-09 19:57N 54°59' W 001°32'0 0.0
2017-Oct-09 19:27N 54°59' W 001°32'0 0.0
2017-Oct-09 18:57N 54°59' W 001°32'0 0.0
2017-Oct-09 18:27N 54°59' W 001°32'0 0.0
2017-Oct-09 17:57N 54°59' W 001°32'0 0.0
2017-Oct-09 17:27N 54°59' W 001°32'0 0.0
2017-Oct-09 16:54N 54°59' W 001°32'0 0.0
2017-Oct-09 16:30N 54°59' W 001°32'0 0.0
2017-Oct-09 16:00N 54°59' W 001°32'0 0.0
2017-Oct-09 15:30N 54°59' W 001°32'0 0.0
2017-Oct-09 15:00N 54°59' W 001°32'0 0.0
2017-Oct-09 14:30N 54°59' W 001°32'0 0.0
2017-Oct-09 14:00N 54°59' W 001°32'0 0.0
2017-Oct-09 13:30N 54°59' W 001°32'0 0.0
2017-Oct-09 13:00N 54°59' W 001°32'0 0.0
2017-Oct-09 12:30N 54°59' W 001°32'0 0.0
2017-Oct-09 12:00N 54°59' W 001°32'0 0.0
2017-Oct-09 11:30N 54°59' W 001°32'0 0.0
2017-Oct-09 11:00N 54°59' W 001°32'0 0.0
2017-Oct-09 10:30N 54°59' W 001°32'0 0.0
2017-Oct-09 10:00N 54°59' W 001°32'0 0.0
2017-Oct-09 09:30N 54°59' W 001°32'0 0.0
2017-Oct-09 08:51N 54°59' W 001°32'0 0.0
2017-Oct-09 08:21N 54°59' W 001°32'0 0.0
2017-Oct-09 07:54N 54°59' W 001°32'0 0.0
2017-Oct-09 07:24N 54°59' W 001°32'0 0.0
2017-Oct-09 06:54N 54°59' W 001°32'0 0.0
2017-Oct-09 06:24N 54°59' W 001°32'0 0.0
2017-Oct-09 05:54N 54°59' W 001°32'0 0.0
2017-Oct-09 05:27N 54°59' W 001°32'0 0.0
2017-Oct-09 04:57N 54°59' W 001°32'0 0.0
2017-Oct-09 04:27N 54°59' W 001°32'0 0.0
2017-Oct-09 03:54N 54°59' W 001°32'0 0.0
2017-Oct-09 03:27N 54°59' W 001°32'0 0.0
2017-Oct-09 02:57N 54°59' W 001°32'0 0.0
2017-Oct-09 02:27N 54°59' W 001°32'0 0.0
2017-Oct-09 01:57N 54°59' W 001°32'0 0.0
2017-Oct-09 01:30N 54°59' W 001°32'0 0.0
2017-Oct-09 01:00N 54°59' W 001°32'0 0.0
2017-Oct-09 00:30N 54°59' W 001°32'0 0.0
2017-Oct-09 00:00N 54°59' W 001°32'0 0.0
2017-Oct-08 23:30N 54°59' W 001°32'0 0.0
2017-Oct-08 23:00N 54°59' W 001°32'0 0.0
2017-Oct-08 22:30N 54°59' W 001°32'0 0.0
2017-Oct-08 22:00N 54°59' W 001°32'0 0.0
2017-Oct-08 21:30N 54°59' W 001°32'0 0.0
2017-Oct-08 21:00N 54°59' W 001°32'0 0.0
2017-Oct-08 20:30N 54°59' W 001°32'0 0.0
2017-Oct-08 20:00N 54°59' W 001°32'0 0.0
2017-Oct-08 19:30N 54°59' W 001°32'0 0.0
2017-Oct-08 19:00N 54°59' W 001°32'0 0.0
2017-Oct-08 18:30N 54°59' W 001°32'0 0.0
2017-Oct-08 17:48N 54°59' W 001°32'0 0.0
2017-Oct-08 17:24N 54°59' W 001°32'0 0.0
2017-Oct-08 16:54N 54°59' W 001°32'0 0.0
2017-Oct-08 16:27N 54°59' W 001°32'1 2.0
2017-Oct-08 16:00N 54°59' W 001°31'3 5.7
2017-Oct-08 15:30N 55°00' W 001°26'2 3.9
2017-Oct-08 15:00N 55°01' W 001°23'0 0.2
2017-Oct-08 14:29N 55°02' W 001°23'0 0.1
2017-Oct-08 13:59N 55°02' W 001°23'0 0.0
2017-Oct-08 13:29N 55°02' W 001°23'0 0.1
2017-Oct-08 12:59N 55°02' W 001°23'0 0.2
2017-Oct-08 12:26N 55°02' W 001°23'0 0.0
2017-Oct-08 11:59N 55°02' W 001°23'0 0.0
2017-Oct-08 11:29N 55°02' W 001°23'0 0.0
2017-Oct-08 10:59N 55°02' W 001°23'0 0.1
2017-Oct-08 10:30N 55°02' W 001°23'1 1.4
2017-Oct-08 10:00N 55°01' W 001°22'612.0
2017-Oct-08 09:30N 54°58' W 001°14'714.5
2017-Oct-08 09:00N 54°52' W 001°05'714.4
2017-Oct-08 08:30N 54°47' W 000°56'2113.8
2017-Oct-08 06:57N 54°31' W 000°31'612.9
2017-Oct-08 06:30N 54°27' W 000°25'612.6
2017-Oct-08 06:00N 54°23' W 000°17'612.4
2017-Oct-08 05:30N 54°18' W 000°10'612.0
2017-Oct-08 05:00N 54°14' W 000°03'611.5
2017-Oct-08 04:30N 54°09' E 000°03'611.8
2017-Oct-08 04:00N 54°05' E 000°10'612.3
2017-Oct-08 03:30N 54°01' E 000°17'612.8
2017-Oct-08 03:00N 53°56' E 000°26'4913.1
2017-Oct-07 23:14N 53°27' E 001°32'  

Dump ship's entire track history